INV161 EGPH-EGGD
Flight info
| Callsign | INV161 |
|---|---|
| Flight time | 0h 54m |
| Altitude | 33000 |
| Route | DCT GOSAM P600 FENIK L612 NAVSO DCT ADZOP DCT EGTOC DCT NOKIN N862 KARNO/N0440F320 DCT ALHUP DCT LUCSA/N0398F230 N862 WEVBE DCT |
| Aircraft | A320/M-SDE3FGHIRWY/LB1 |
Departure
| Time | 2026-05-04 11:20 |
|---|---|
| Airport | Edinburgh Airport (EGPH) |
Arrival
| Time | 2026-05-04 12:14 |
|---|---|
| Airport | Bristol Airport (EGGD) |
| Time | Latitude | Longitude | Altitude | Speed | Heading |
|---|---|---|---|---|---|
| 2026-05-04 10:58 | 55.94881 | -3.36548 | 116 ft | 0 kts | 148° |
| 2026-05-04 11:01 | 55.94881 | -3.36549 | 117 ft | 0 kts | 148° |
| 2026-05-04 11:02 | 55.94882 | -3.36549 | 117 ft | 0 kts | 148° |
| 2026-05-04 11:12 | 55.94894 | -3.36564 | 113 ft | 4 kts | 152° |
| 2026-05-04 11:12 | 55.94913 | -3.36583 | 114 ft | 4 kts | 145° |
| 2026-05-04 11:13 | 55.94930 | -3.36614 | 113 ft | 4 kts | 105° |
| 2026-05-04 11:13 | 55.94930 | -3.36646 | 113 ft | 0 kts | 58° |
| 2026-05-04 11:16 | 55.95077 | -3.36393 | 114 ft | 13 kts | 19° |
| 2026-05-04 11:16 | 55.95148 | -3.36239 | 116 ft | 20 kts | 58° |
| 2026-05-04 11:16 | 55.95222 | -3.36024 | 113 ft | 16 kts | 58° |
| 2026-05-04 11:17 | 55.95277 | -3.35859 | 115 ft | 15 kts | 59° |
| 2026-05-04 11:17 | 55.95327 | -3.35707 | 114 ft | 14 kts | 59° |
| 2026-05-04 11:19 | 55.95562 | -3.35529 | 113 ft | 14 kts | 289° |
| 2026-05-04 11:19 | 55.95528 | -3.35693 | 113 ft | 17 kts | 241° |
| 2026-05-04 11:19 | 55.95357 | -3.36204 | 110 ft | 84 kts | 238° |
| 2026-05-04 11:19 | 55.94953 | -3.37409 | 113 ft | 141 kts | 237° |
| 2026-05-04 11:20 | 55.94408 | -3.38961 | 597 ft | 147 kts | 241° |
| 2026-05-04 11:20 | 55.93875 | -3.40540 | 1363 ft | 150 kts | 243° |
| 2026-05-04 11:20 | 55.93305 | -3.42213 | 1844 ft | 168 kts | 240° |
| 2026-05-04 11:20 | 55.92650 | -3.44114 | 2241 ft | 193 kts | 241° |
| 2026-05-04 11:22 | 55.89187 | -3.63716 | 7698 ft | 259 kts | 261° |
| 2026-05-04 11:22 | 55.88863 | -3.66904 | 8538 ft | 263 kts | 261° |
| 2026-05-04 11:23 | 55.88536 | -3.70131 | 9420 ft | 266 kts | 261° |
| 2026-05-04 11:23 | 55.88205 | -3.73403 | 10220 ft | 271 kts | 261° |
| 2026-05-04 11:24 | 55.85881 | -3.96534 | 13600 ft | 336 kts | 261° |
| 2026-05-04 11:25 | 55.85468 | -4.00665 | 14238 ft | 341 kts | 261° |
| 2026-05-04 11:25 | 55.85046 | -4.04849 | 14871 ft | 345 kts | 261° |
| 2026-05-04 11:25 | 55.84595 | -4.09052 | 15520 ft | 349 kts | 257° |
| 2026-05-04 11:26 | 55.81934 | -4.16319 | 16794 ft | 365 kts | 220° |
| 2026-05-04 11:27 | 55.64835 | -4.22605 | 20624 ft | 409 kts | 154° |
| 2026-05-04 11:28 | 55.62351 | -4.20181 | 21123 ft | 412 kts | 151° |
| 2026-05-04 11:28 | 55.59832 | -4.17689 | 21647 ft | 416 kts | 151° |
| 2026-05-04 11:28 | 55.57286 | -4.15196 | 22173 ft | 419 kts | 151° |
| 2026-05-04 11:28 | 55.54721 | -4.12698 | 22688 ft | 422 kts | 151° |
| 2026-05-04 11:29 | 55.52134 | -4.10186 | 23196 ft | 425 kts | 151° |
| 2026-05-04 11:29 | 55.49533 | -4.07663 | 23670 ft | 428 kts | 151° |
| 2026-05-04 11:29 | 55.46907 | -4.05117 | 24062 ft | 432 kts | 151° |
| 2026-05-04 11:29 | 55.44271 | -4.02562 | 24471 ft | 434 kts | 150° |
| 2026-05-04 11:31 | 55.25454 | -3.84394 | 27031 ft | 451 kts | 150° |
| 2026-05-04 11:33 | 55.04318 | -3.71512 | 29235 ft | 469 kts | 162° |
| 2026-05-04 11:33 | 55.01200 | -3.69811 | 29511 ft | 472 kts | 161° |
| 2026-05-04 11:33 | 54.98048 | -3.68089 | 29791 ft | 474 kts | 161° |
| 2026-05-04 11:34 | 54.94887 | -3.66364 | 30053 ft | 476 kts | 161° |
| 2026-05-04 11:34 | 54.91718 | -3.64638 | 30271 ft | 478 kts | 161° |
| 2026-05-04 11:34 | 54.88537 | -3.62917 | 30497 ft | 479 kts | 161° |
| 2026-05-04 11:34 | 54.85351 | -3.61198 | 30741 ft | 480 kts | 161° |
| 2026-05-04 11:35 | 54.82163 | -3.59477 | 31024 ft | 479 kts | 161° |
| 2026-05-04 11:35 | 54.79035 | -3.57792 | 31367 ft | 477 kts | 161° |
| 2026-05-04 11:35 | 54.75823 | -3.56067 | 31713 ft | 475 kts | 161° |
| 2026-05-04 11:35 | 54.72677 | -3.54381 | 32058 ft | 473 kts | 161° |
| 2026-05-04 11:36 | 54.69540 | -3.52703 | 32408 ft | 471 kts | 161° |
| 2026-05-04 11:36 | 54.66464 | -3.51052 | 32769 ft | 468 kts | 160° |
| 2026-05-04 11:36 | 54.63363 | -3.49390 | 33025 ft | 466 kts | 160° |
| 2026-05-04 11:36 | 54.60273 | -3.47740 | 33075 ft | 461 kts | 160° |
| 2026-05-04 11:37 | 54.54165 | -3.44491 | 33075 ft | 457 kts | 160° |
| 2026-05-04 11:37 | 54.48073 | -3.41260 | 33076 ft | 457 kts | 160° |
| 2026-05-04 11:38 | 54.42001 | -3.38053 | 33072 ft | 455 kts | 160° |
| 2026-05-04 11:38 | 54.35954 | -3.34867 | 33077 ft | 454 kts | 160° |
| 2026-05-04 11:39 | 54.29921 | -3.31688 | 33071 ft | 453 kts | 160° |
| 2026-05-04 11:40 | 54.11514 | -3.24532 | 33076 ft | 457 kts | 172° |
| 2026-05-04 11:41 | 54.08339 | -3.24041 | 33078 ft | 457 kts | 171° |
| 2026-05-04 11:41 | 54.02000 | -3.23034 | 33077 ft | 457 kts | 171° |
| 2026-05-04 11:42 | 53.95788 | -3.21090 | 33076 ft | 454 kts | 163° |
| 2026-05-04 11:42 | 53.89630 | -3.18722 | 33072 ft | 453 kts | 163° |
| 2026-05-04 11:43 | 53.83470 | -3.16424 | 33074 ft | 453 kts | 163° |
| 2026-05-04 11:43 | 53.77316 | -3.14125 | 33070 ft | 454 kts | 163° |
| 2026-05-04 11:44 | 53.71196 | -3.11815 | 33075 ft | 454 kts | 163° |
| 2026-05-04 11:44 | 53.65043 | -3.09483 | 33084 ft | 453 kts | 162° |
| 2026-05-04 11:45 | 53.58889 | -3.07172 | 33089 ft | 452 kts | 163° |
| 2026-05-04 11:45 | 53.52748 | -3.04892 | 33089 ft | 452 kts | 163° |
| 2026-05-04 11:46 | 53.46600 | -3.02612 | 33085 ft | 451 kts | 163° |
| 2026-05-04 11:46 | 53.40466 | -3.00335 | 33085 ft | 451 kts | 163° |
| 2026-05-04 11:47 | 53.34326 | -2.98065 | 33079 ft | 451 kts | 163° |
| 2026-05-04 11:47 | 53.28203 | -2.95801 | 33078 ft | 451 kts | 163° |
| 2026-05-04 11:48 | 53.22063 | -2.93542 | 33075 ft | 451 kts | 163° |
| 2026-05-04 11:48 | 53.15981 | -2.91314 | 33087 ft | 450 kts | 162° |
| 2026-05-04 11:49 | 53.09860 | -2.89092 | 32860 ft | 450 kts | 165° |
| 2026-05-04 11:49 | 53.06728 | -2.88489 | 32598 ft | 456 kts | 174° |
| 2026-05-04 11:49 | 53.03547 | -2.88617 | 32213 ft | 458 kts | 179° |
| 2026-05-04 11:49 | 53.00371 | -2.88896 | 31547 ft | 455 kts | 179° |
| 2026-05-04 11:50 | 52.97218 | -2.89172 | 30964 ft | 452 kts | 179° |
| 2026-05-04 11:50 | 52.94080 | -2.89441 | 30320 ft | 450 kts | 179° |
| 2026-05-04 11:50 | 52.90978 | -2.89706 | 29761 ft | 445 kts | 179° |
| 2026-05-04 11:50 | 52.87900 | -2.90198 | 29132 ft | 444 kts | 184° |
| 2026-05-04 11:51 | 52.84858 | -2.90929 | 28546 ft | 439 kts | 184° |
| 2026-05-04 11:51 | 52.81840 | -2.91642 | 27989 ft | 434 kts | 185° |
| 2026-05-04 11:51 | 52.78900 | -2.92329 | 27455 ft | 430 kts | 185° |
| 2026-05-04 11:51 | 52.75960 | -2.93010 | 26916 ft | 425 kts | 185° |
| 2026-05-04 11:52 | 52.73006 | -2.93696 | 26384 ft | 421 kts | 185° |
| 2026-05-04 11:52 | 52.70157 | -2.94209 | 25932 ft | 413 kts | 180° |
| 2026-05-04 11:52 | 52.67298 | -2.94446 | 25452 ft | 408 kts | 180° |
| 2026-05-04 11:52 | 52.64473 | -2.94679 | 24962 ft | 404 kts | 181° |
| 2026-05-04 11:53 | 52.61679 | -2.94911 | 24479 ft | 400 kts | 181° |
| 2026-05-04 11:53 | 52.58907 | -2.95142 | 24012 ft | 396 kts | 181° |
| 2026-05-04 11:53 | 52.57089 | -2.95294 | 23704 ft | 394 kts | 181° |
| 2026-05-04 11:53 | 52.53444 | -2.95598 | 23001 ft | 390 kts | 181° |
| 2026-05-04 11:55 | 52.35234 | -2.97080 | 19838 ft | 362 kts | 182° |
| 2026-05-04 11:55 | 52.32722 | -2.97282 | 19361 ft | 361 kts | 182° |
| 2026-05-04 11:56 | 52.30217 | -2.97486 | 18888 ft | 359 kts | 182° |
| 2026-05-04 11:56 | 52.27730 | -2.97686 | 18456 ft | 356 kts | 182° |
| 2026-05-04 11:56 | 52.25258 | -2.97887 | 17991 ft | 354 kts | 182° |
| 2026-05-04 11:56 | 52.22805 | -2.98087 | 17484 ft | 352 kts | 182° |
| 2026-05-04 11:57 | 52.20368 | -2.98287 | 17007 ft | 350 kts | 182° |
| 2026-05-04 11:57 | 52.17946 | -2.98487 | 16545 ft | 348 kts | 182° |
| 2026-05-04 11:57 | 52.15538 | -2.98685 | 16123 ft | 345 kts | 182° |
| 2026-05-04 11:57 | 52.13145 | -2.98883 | 15689 ft | 342 kts | 182° |
| 2026-05-04 11:58 | 52.10807 | -2.99073 | 15269 ft | 340 kts | 182° |
| 2026-05-04 11:58 | 52.08447 | -2.99261 | 14840 ft | 338 kts | 182° |
| 2026-05-04 11:58 | 52.06102 | -2.99451 | 14444 ft | 336 kts | 182° |
| 2026-05-04 11:58 | 52.03773 | -2.99645 | 14067 ft | 334 kts | 182° |
| 2026-05-04 11:59 | 52.01459 | -2.99834 | 13667 ft | 332 kts | 182° |
| 2026-05-04 11:59 | 51.99160 | -2.99900 | 13254 ft | 328 kts | 178° |
| 2026-05-04 11:59 | 51.97622 | -2.99818 | 12923 ft | 326 kts | 177° |
| 2026-05-04 11:59 | 51.94656 | -2.99573 | 11840 ft | 320 kts | 175° |
| 2026-05-04 12:00 | 51.92439 | -2.99356 | 11001 ft | 318 kts | 175° |
| 2026-05-04 12:00 | 51.90234 | -2.99142 | 10174 ft | 316 kts | 175° |
| 2026-05-04 12:00 | 51.88071 | -2.98939 | 9764 ft | 301 kts | 175° |
| 2026-05-04 12:00 | 51.86050 | -2.98759 | 9400 ft | 285 kts | 175° |
| 2026-05-04 12:01 | 51.84092 | -2.98590 | 8796 ft | 279 kts | 175° |
| 2026-05-04 12:01 | 51.82160 | -2.98422 | 8164 ft | 276 kts | 175° |
| 2026-05-04 12:02 | 51.70873 | -2.97434 | 5804 ft | 266 kts | 174° |
| 2026-05-04 12:03 | 51.69034 | -2.97280 | 5404 ft | 264 kts | 174° |
| 2026-05-04 12:03 | 51.67200 | -2.97125 | 4985 ft | 262 kts | 174° |
| 2026-05-04 12:03 | 51.65994 | -2.97022 | 4701 ft | 262 kts | 174° |
| 2026-05-04 12:03 | 51.63561 | -2.96811 | 4137 ft | 260 kts | 174° |
| 2026-05-04 12:04 | 51.61765 | -2.96655 | 4044 ft | 258 kts | 173° |
| 2026-05-04 12:04 | 51.60570 | -2.96553 | 4219 ft | 261 kts | 174° |
| 2026-05-04 12:04 | 51.58749 | -2.96684 | 4444 ft | 264 kts | 188° |
| 2026-05-04 12:04 | 51.57001 | -2.97253 | 4519 ft | 248 kts | 190° |
| 2026-05-04 12:05 | 51.55332 | -2.97826 | 4526 ft | 243 kts | 188° |
| 2026-05-04 12:05 | 51.53681 | -2.98432 | 4527 ft | 240 kts | 189° |
| 2026-05-04 12:05 | 51.52113 | -2.99006 | 4526 ft | 222 kts | 190° |
| 2026-05-04 12:05 | 51.50654 | -2.99544 | 4525 ft | 211 kts | 190° |
| 2026-05-04 12:06 | 51.49229 | -3.00073 | 4515 ft | 210 kts | 191° |
| 2026-05-04 12:06 | 51.47805 | -3.00594 | 4511 ft | 210 kts | 191° |
| 2026-05-04 12:06 | 51.46371 | -3.01107 | 4512 ft | 210 kts | 190° |
| 2026-05-04 12:06 | 51.44949 | -3.01631 | 4507 ft | 210 kts | 191° |
| 2026-05-04 12:07 | 51.43552 | -3.02129 | 4410 ft | 200 kts | 191° |
| 2026-05-04 12:07 | 51.42227 | -3.02599 | 4276 ft | 192 kts | 190° |
| 2026-05-04 12:07 | 51.40942 | -3.02860 | 4121 ft | 185 kts | 175° |
| 2026-05-04 12:07 | 51.39689 | -3.02464 | 3846 ft | 180 kts | 156° |
| 2026-05-04 12:08 | 51.38622 | -3.01469 | 3535 ft | 179 kts | 139° |
| 2026-05-04 12:08 | 51.37815 | -2.99966 | 3269 ft | 174 kts | 120° |
| 2026-05-04 12:08 | 51.37382 | -2.98275 | 3147 ft | 161 kts | 103° |
| 2026-05-04 12:08 | 51.37277 | -2.96561 | 3006 ft | 151 kts | 88° |
| 2026-05-04 12:09 | 51.37343 | -2.94963 | 2880 ft | 136 kts | 87° |
| 2026-05-04 12:09 | 51.37404 | -2.93467 | 2556 ft | 134 kts | 86° |
| 2026-05-04 12:09 | 51.37464 | -2.91982 | 2530 ft | 135 kts | 86° |
| 2026-05-04 12:09 | 51.37525 | -2.90460 | 2513 ft | 137 kts | 87° |
| 2026-05-04 12:10 | 51.37588 | -2.88934 | 2480 ft | 137 kts | 86° |
| 2026-05-04 12:10 | 51.37650 | -2.87403 | 2360 ft | 137 kts | 87° |
| 2026-05-04 12:10 | 51.37711 | -2.85889 | 2190 ft | 136 kts | 86° |
| 2026-05-04 12:10 | 51.37772 | -2.84399 | 2022 ft | 136 kts | 85° |
| 2026-05-04 12:11 | 51.37832 | -2.82893 | 1849 ft | 136 kts | 86° |
| 2026-05-04 12:11 | 51.37893 | -2.81381 | 1665 ft | 136 kts | 85° |
| 2026-05-04 12:11 | 51.37954 | -2.79868 | 1481 ft | 136 kts | 85° |
| 2026-05-04 12:11 | 51.38014 | -2.78358 | 1297 ft | 135 kts | 85° |
| 2026-05-04 12:12 | 51.38073 | -2.76856 | 1102 ft | 133 kts | 86° |
| 2026-05-04 12:12 | 51.38123 | -2.75399 | 924 ft | 131 kts | 85° |
| 2026-05-04 12:12 | 51.38183 | -2.73935 | 763 ft | 133 kts | 85° |
| 2026-05-04 12:12 | 51.38244 | -2.72494 | 631 ft | 118 kts | 87° |
| 2026-05-04 12:13 | 51.38287 | -2.71435 | 602 ft | 67 kts | 87° |
| 2026-05-04 12:14 | 51.38467 | -2.70751 | 611 ft | 4 kts | 296° |
| 2026-05-04 12:15 | 51.38471 | -2.70785 | 622 ft | 4 kts | 270° |
| 2026-05-04 12:15 | 51.38471 | -2.70826 | 613 ft | 1 kts | 269° |
| 2026-05-04 12:15 | 51.38470 | -2.70855 | 623 ft | 11 kts | 269° |
| 2026-05-04 12:15 | 51.38461 | -2.71076 | 615 ft | 24 kts | 265° |
| 2026-05-04 12:16 | 51.38450 | -2.71341 | 614 ft | 24 kts | 267° |
| 2026-05-04 12:16 | 51.38442 | -2.71610 | 610 ft | 24 kts | 267° |
| 2026-05-04 12:16 | 51.38435 | -2.71820 | 612 ft | 13 kts | 267° |
| 2026-05-04 12:16 | 51.38489 | -2.71879 | 608 ft | 9 kts | 357° |
| 2026-05-04 12:17 | 51.38549 | -2.71886 | 615 ft | 8 kts | 342° |
| 2026-05-04 12:17 | 51.38569 | -2.71939 | 610 ft | 0 kts | 272° |
| 2026-05-04 12:17 | 51.38568 | -2.71950 | 607 ft | 4 kts | 265° |
| 2026-05-04 12:17 | 51.38567 | -2.71962 | 619 ft | 0 kts | 266° |